sensor_id;sensor_type;location;lat;lon;timestamp;temperature;humidity
9939;DHT22;5008;50.656;7.188;2023-07-31T04:02:40;18.40;99.90
9939;DHT22;5008;50.656;7.188;2023-07-31T04:05:13;18.40;99.90
9939;DHT22;5008;50.656;7.188;2023-07-31T04:07:40;18.40;99.90
9939;DHT22;5008;50.656;7.188;2023-07-31T04:10:07;18.40;99.90
9939;DHT22;5008;50.656;7.188;2023-07-31T04:12:34;18.40;99.90
9939;DHT22;5008;50.656;7.188;2023-07-31T04:15:01;18.40;99.90
9939;DHT22;5008;50.656;7.188;2023-07-31T04:17:27;18.40;99.90
9939;DHT22;5008;50.656;7.188;2023-07-31T04:19:56;18.40;99.90
9939;DHT22;5008;50.656;7.188;2023-07-31T04:22:22;18.30;99.90
9939;DHT22;5008;50.656;7.188;2023-07-31T04:24:49;18.40;99.90
9939;DHT22;5008;50.656;7.188;2023-07-31T04:27:16;18.40;99.90
9939;DHT22;5008;50.656;7.188;2023-07-31T04:29:43;18.40;99.90
9939;DHT22;5008;50.656;7.188;2023-07-31T04:32:11;18.40;99.90
9939;DHT22;5008;50.656;7.188;2023-07-31T04:34:38;18.40;99.90
9939;DHT22;5008;50.656;7.188;2023-07-31T04:37:06;18.40;99.90
9939;DHT22;5008;50.656;7.188;2023-07-31T04:39:33;18.40;99.90
9939;DHT22;5008;50.656;7.188;2023-07-31T04:42:00;18.40;99.90
9939;DHT22;5008;50.656;7.188;2023-07-31T04:44:27;18.40;99.90
9939;DHT22;5008;50.656;7.188;2023-07-31T04:46:53;18.40;99.90
9939;DHT22;5008;50.656;7.188;2023-07-31T04:49:20;18.50;99.90
9939;DHT22;5008;50.656;7.188;2023-07-31T04:51:47;18.40;99.90
9939;DHT22;5008;50.656;7.188;2023-07-31T04:54:15;18.50;99.90
9939;DHT22;5008;50.656;7.188;2023-07-31T04:56:42;18.50;99.90
9939;DHT22;5008;50.656;7.188;2023-07-31T04:59:09;18.50;99.90
9939;DHT22;5008;50.656;7.188;2023-07-31T05:01:36;18.50;99.90
9939;DHT22;5008;50.656;7.188;2023-07-31T05:04:03;18.50;99.90
9939;DHT22;5008;50.656;7.188;2023-07-31T05:06:30;18.50;99.90
9939;DHT22;5008;50.656;7.188;2023-07-31T05:08:56;18.50;99.90
9939;DHT22;5008;50.656;7.188;2023-07-31T05:11:25;18.50;99.90
9939;DHT22;5008;50.656;7.188;2023-07-31T05:13:51;18.60;99.90
9939;DHT22;5008;50.656;7.188;2023-07-31T05:16:18;18.60;99.90
9939;DHT22;5008;50.656;7.188;2023-07-31T05:18:45;18.70;99.90
9939;DHT22;5008;50.656;7.188;2023-07-31T05:21:12;18.70;99.90
9939;DHT22;5008;50.656;7.188;2023-07-31T05:23:38;18.70;99.90
9939;DHT22;5008;50.656;7.188;2023-07-31T05:26:06;18.70;99.90
9939;DHT22;5008;50.656;7.188;2023-07-31T05:28:36;18.70;99.90
9939;DHT22;5008;50.656;7.188;2023-07-31T05:31:04;18.80;99.90
9939;DHT22;5008;50.656;7.188;2023-07-31T05:33:32;18.80;99.90
9939;DHT22;5008;50.656;7.188;2023-07-31T05:35:59;18.70;99.90
9939;DHT22;5008;50.656;7.188;2023-07-31T05:38:26;18.80;99.90
9939;DHT22;5008;50.656;7.188;2023-07-31T05:40:53;18.80;99.90
9939;DHT22;5008;50.656;7.188;2023-07-31T05:43:20;18.80;99.90
9939;DHT22;5008;50.656;7.188;2023-07-31T05:45:48;18.80;99.90
9939;DHT22;5008;50.656;7.188;2023-07-31T05:48:15;18.80;99.90
9939;DHT22;5008;50.656;7.188;2023-07-31T05:50:43;18.70;99.90
9939;DHT22;5008;50.656;7.188;2023-07-31T05:53:10;18.70;99.90
9939;DHT22;5008;50.656;7.188;2023-07-31T05:55:36;18.70;99.90
9939;DHT22;5008;50.656;7.188;2023-07-31T05:58:03;18.70;99.90
9939;DHT22;5008;50.656;7.188;2023-07-31T06:00:30;18.80;99.90
9939;DHT22;5008;50.656;7.188;2023-07-31T06:02:58;18.80;99.90
9939;DHT22;5008;50.656;7.188;2023-07-31T06:05:25;18.80;99.90
9939;DHT22;5008;50.656;7.188;2023-07-31T06:07:54;18.90;99.90
9939;DHT22;5008;50.656;7.188;2023-07-31T06:10:21;18.90;99.90
9939;DHT22;5008;50.656;7.188;2023-07-31T06:12:48;18.90;99.90
9939;DHT22;5008;50.656;7.188;2023-07-31T06:15:14;18.90;99.90
9939;DHT22;5008;50.656;7.188;2023-07-31T06:17:41;18.80;99.90
9939;DHT22;5008;50.656;7.188;2023-07-31T06:20:10;18.80;99.90
9939;DHT22;5008;50.656;7.188;2023-07-31T06:22:37;18.70;99.90
9939;DHT22;5008;50.656;7.188;2023-07-31T06:25:04;18.70;99.90
9939;DHT22;5008;50.656;7.188;2023-07-31T06:27:31;18.70;99.90
9939;DHT22;5008;50.656;7.188;2023-07-31T06:29:58;18.60;99.90
9939;DHT22;5008;50.656;7.188;2023-07-31T06:32:25;18.60;99.90
9939;DHT22;5008;50.656;7.188;2023-07-31T06:34:52;18.60;99.90
9939;DHT22;5008;50.656;7.188;2023-07-31T06:37:20;18.50;99.90
9939;DHT22;5008;50.656;7.188;2023-07-31T06:39:49;18.50;99.90
9939;DHT22;5008;50.656;7.188;2023-07-31T06:42:16;18.50;99.90
9939;DHT22;5008;50.656;7.188;2023-07-31T06:44:43;18.50;99.90
9939;DHT22;5008;50.656;7.188;2023-07-31T06:47:10;18.50;99.90
9939;DHT22;5008;50.656;7.188;2023-07-31T06:49:36;18.40;99.90
9939;DHT22;5008;50.656;7.188;2023-07-31T06:52:04;18.40;99.90
9939;DHT22;5008;50.656;7.188;2023-07-31T06:54:32;18.40;99.90
9939;DHT22;5008;50.656;7.188;2023-07-31T06:56:59;18.40;99.90
9939;DHT22;5008;50.656;7.188;2023-07-31T06:59:25;18.50;99.90
9939;DHT22;5008;50.656;7.188;2023-07-31T07:01:52;18.50;99.90
9939;DHT22;5008;50.656;7.188;2023-07-31T07:04:19;18.50;99.90
9939;DHT22;5008;50.656;7.188;2023-07-31T07:06:46;18.60;99.90
9939;DHT22;5008;50.656;7.188;2023-07-31T07:09:14;18.60;99.90
9939;DHT22;5008;50.656;7.188;2023-07-31T07:11:42;18.60;99.90
9939;DHT22;5008;50.656;7.188;2023-07-31T07:14:09;18.70;99.90
9939;DHT22;5008;50.656;7.188;2023-07-31T07:16:36;18.80;99.90
9939;DHT22;5008;50.656;7.188;2023-07-31T07:19:03;18.80;99.90
9939;DHT22;5008;50.656;7.188;2023-07-31T07:21:30;18.80;99.90
9939;DHT22;5008;50.656;7.188;2023-07-31T07:23:56;18.90;99.90
9939;DHT22;5008;50.656;7.188;2023-07-31T07:26:23;19.00;99.90
9939;DHT22;5008;50.656;7.188;2023-07-31T07:28:51;19.00;99.90
9939;DHT22;5008;50.656;7.188;2023-07-31T07:31:18;19.10;99.90
9939;DHT22;5008;50.656;7.188;2023-07-31T07:33:45;19.10;99.90
9939;DHT22;5008;50.656;7.188;2023-07-31T07:36:12;19.10;99.90
9939;DHT22;5008;50.656;7.188;2023-07-31T07:38:38;19.20;99.90
9939;DHT22;5008;50.656;7.188;2023-07-31T07:41:06;19.10;99.90
9939;DHT22;5008;50.656;7.188;2023-07-31T07:43:33;19.10;99.90
9939;DHT22;5008;50.656;7.188;2023-07-31T07:46:01;19.10;99.90
9939;DHT22;5008;50.656;7.188;2023-07-31T07:48:28;19.20;99.90
9939;DHT22;5008;50.656;7.188;2023-07-31T07:50:55;19.20;99.90
9939;DHT22;5008;50.656;7.188;2023-07-31T07:53:21;19.10;99.90
9939;DHT22;5008;50.656;7.188;2023-07-31T07:55:48;19.00;99.90
9939;DHT22;5008;50.656;7.188;2023-07-31T07:58:15;18.90;99.90
9939;DHT22;5008;50.656;7.188;2023-07-31T08:00:42;18.80;99.90
9939;DHT22;5008;50.656;7.188;2023-07-31T08:03:15;18.80;99.90
9939;DHT22;5008;50.656;7.188;2023-07-31T08:05:44;18.80;99.90
9939;DHT22;5008;50.656;7.188;2023-07-31T08:08:14;18.70;99.90
9939;DHT22;5008;50.656;7.188;2023-07-31T08:10:41;18.70;99.90
9939;DHT22;5008;50.656;7.188;2023-07-31T08:13:09;18.70;99.90
9939;DHT22;5008;50.656;7.188;2023-07-31T08:15:35;18.60;99.90
9939;DHT22;5008;50.656;7.188;2023-07-31T08:18:02;18.50;99.90
9939;DHT22;5008;50.656;7.188;2023-07-31T08:20:30;18.50;99.90
9939;DHT22;5008;50.656;7.188;2023-07-31T08:22:57;18.60;99.90
9939;DHT22;5008;50.656;7.188;2023-07-31T08:25:24;18.50;99.90
9939;DHT22;5008;50.656;7.188;2023-07-31T08:27:51;18.50;99.90
9939;DHT22;5008;50.656;7.188;2023-07-31T08:30:19;18.50;99.90
9939;DHT22;5008;50.656;7.188;2023-07-31T08:32:46;18.50;99.90
9939;DHT22;5008;50.656;7.188;2023-07-31T08:35:12;18.50;99.90
9939;DHT22;5008;50.656;7.188;2023-07-31T08:37:40;18.60;99.90
9939;DHT22;5008;50.656;7.188;2023-07-31T08:40:08;18.60;99.90
9939;DHT22;5008;50.656;7.188;2023-07-31T08:42:43;18.50;99.90
9939;DHT22;5008;50.656;7.188;2023-07-31T08:45:14;18.50;99.90
9939;DHT22;5008;50.656;7.188;2023-07-31T08:47:44;18.50;99.90
9939;DHT22;5008;50.656;7.188;2023-07-31T08:50:12;18.50;99.90
9939;DHT22;5008;50.656;7.188;2023-07-31T08:52:40;18.50;99.90
9939;DHT22;5008;50.656;7.188;2023-07-31T08:55:07;18.40;99.90
9939;DHT22;5008;50.656;7.188;2023-07-31T08:57:36;18.50;99.90
9939;DHT22;5008;50.656;7.188;2023-07-31T09:00:05;18.50;99.90
9939;DHT22;5008;50.656;7.188;2023-07-31T09:02:37;18.40;99.90
9939;DHT22;5008;50.656;7.188;2023-07-31T09:05:05;18.50;99.90
9939;DHT22;5008;50.656;7.188;2023-07-31T09:07:34;18.40;99.90
9939;DHT22;5008;50.656;7.188;2023-07-31T09:10:03;18.40;99.90
9939;DHT22;5008;50.656;7.188;2023-07-31T09:12:30;18.30;99.90
9939;DHT22;5008;50.656;7.188;2023-07-31T09:14:58;18.30;99.90
9939;DHT22;5008;50.656;7.188;2023-07-31T09:17:32;18.30;99.90
9939;DHT22;5008;50.656;7.188;2023-07-31T09:20:13;18.30;99.90
9939;DHT22;5008;50.656;7.188;2023-07-31T09:22:40;18.30;99.90
9939;DHT22;5008;50.656;7.188;2023-07-31T09:25:16;18.30;99.90
9939;DHT22;5008;50.656;7.188;2023-07-31T09:27:47;18.30;99.90
9939;DHT22;5008;50.656;7.188;2023-07-31T09:30:14;18.40;99.90
9939;DHT22;5008;50.656;7.188;2023-07-31T09:32:41;18.30;99.90
9939;DHT22;5008;50.656;7.188;2023-07-31T09:35:19;18.30;99.90
9939;DHT22;5008;50.656;7.188;2023-07-31T09:37:51;18.30;99.90
9939;DHT22;5008;50.656;7.188;2023-07-31T09:40:33;18.30;99.90
9939;DHT22;5008;50.656;7.188;2023-07-31T09:43:01;18.30;99.90
9939;DHT22;5008;50.656;7.188;2023-07-31T09:45:29;18.30;99.90
9939;DHT22;5008;50.656;7.188;2023-07-31T09:47:57;18.40;99.90
9939;DHT22;5008;50.656;7.188;2023-07-31T09:50:24;18.50;99.90
9939;DHT22;5008;50.656;7.188;2023-07-31T09:52:52;18.50;99.90
9939;DHT22;5008;50.656;7.188;2023-07-31T09:55:19;18.50;99.90
9939;DHT22;5008;50.656;7.188;2023-07-31T09:57:48;18.60;99.90
9939;DHT22;5008;50.656;7.188;2023-07-31T10:00:17;18.60;99.90
9939;DHT22;5008;50.656;7.188;2023-07-31T10:02:46;18.60;99.90
9939;DHT22;5008;50.656;7.188;2023-07-31T10:05:14;18.70;99.90
9939;DHT22;5008;50.656;7.188;2023-07-31T10:07:44;18.70;99.90
9939;DHT22;5008;50.656;7.188;2023-07-31T10:10:13;18.70;99.90
9939;DHT22;5008;50.656;7.188;2023-07-31T10:12:42;18.70;99.90
9939;DHT22;5008;50.656;7.188;2023-07-31T10:15:11;18.70;99.90
9939;DHT22;5008;50.656;7.188;2023-07-31T10:17:38;18.80;99.90
9939;DHT22;5008;50.656;7.188;2023-07-31T10:20:06;18.80;99.90
9939;DHT22;5008;50.656;7.188;2023-07-31T10:22:34;18.90;99.90
9939;DHT22;5008;50.656;7.188;2023-07-31T10:25:01;18.90;99.90
9939;DHT22;5008;50.656;7.188;2023-07-31T10:27:28;18.90;99.90
9939;DHT22;5008;50.656;7.188;2023-07-31T10:29:57;18.90;99.90
9939;DHT22;5008;50.656;7.188;2023-07-31T10:32:26;19.00;99.90
9939;DHT22;5008;50.656;7.188;2023-07-31T10:34:54;19.00;99.90
9939;DHT22;5008;50.656;7.188;2023-07-31T10:37:25;19.00;99.90
9939;DHT22;5008;50.656;7.188;2023-07-31T10:40:00;19.10;99.90
9939;DHT22;5008;50.656;7.188;2023-07-31T10:42:28;19.30;99.90
9939;DHT22;5008;50.656;7.188;2023-07-31T10:44:58;19.60;99.90
9939;DHT22;5008;50.656;7.188;2023-07-31T10:47:26;19.70;99.90
9939;DHT22;5008;50.656;7.188;2023-07-31T10:50:11;20.00;99.90
9939;DHT22;5008;50.656;7.188;2023-07-31T10:52:38;20.30;99.90
9939;DHT22;5008;50.656;7.188;2023-07-31T10:55:15;20.40;99.90
9939;DHT22;5008;50.656;7.188;2023-07-31T10:57:44;20.40;99.90
9939;DHT22;5008;50.656;7.188;2023-07-31T11:00:20;20.40;99.90
9939;DHT22;5008;50.656;7.188;2023-07-31T11:02:59;20.60;99.90
9939;DHT22;5008;50.656;7.188;2023-07-31T11:05:46;20.70;99.90
9939;DHT22;5008;50.656;7.188;2023-07-31T11:08:15;20.70;99.90
9939;DHT22;5008;50.656;7.188;2023-07-31T11:10:43;20.70;99.90
9939;DHT22;5008;50.656;7.188;2023-07-31T11:13:10;20.70;99.90
9939;DHT22;5008;50.656;7.188;2023-07-31T11:15:37;20.70;99.90
9939;DHT22;5008;50.656;7.188;2023-07-31T11:18:05;20.70;99.90
9939;DHT22;5008;50.656;7.188;2023-07-31T11:20:34;21.00;99.90
9939;DHT22;5008;50.656;7.188;2023-07-31T11:23:02;21.10;99.90
9939;DHT22;5008;50.656;7.188;2023-07-31T11:25:29;21.20;99.90
9939;DHT22;5008;50.656;7.188;2023-07-31T11:27:57;21.30;99.90
9939;DHT22;5008;50.656;7.188;2023-07-31T11:30:23;21.30;99.90
9939;DHT22;5008;50.656;7.188;2023-07-31T11:32:50;21.50;99.90
9939;DHT22;5008;50.656;7.188;2023-07-31T11:35:19;21.40;99.90
9939;DHT22;5008;50.656;7.188;2023-07-31T11:37:48;21.40;99.90
9939;DHT22;5008;50.656;7.188;2023-07-31T11:40:16;21.30;99.90
9939;DHT22;5008;50.656;7.188;2023-07-31T11:42:42;21.30;99.90
9939;DHT22;5008;50.656;7.188;2023-07-31T11:45:10;21.10;99.90
9939;DHT22;5008;50.656;7.188;2023-07-31T11:47:37;20.80;99.90
9939;DHT22;5008;50.656;7.188;2023-07-31T11:50:09;20.50;99.90
9939;DHT22;5008;50.656;7.188;2023-07-31T11:52:40;20.40;99.90
9939;DHT22;5008;50.656;7.188;2023-07-31T11:55:09;20.30;99.90
9939;DHT22;5008;50.656;7.188;2023-07-31T11:57:37;20.40;99.90
9939;DHT22;5008;50.656;7.188;2023-07-31T12:00:07;20.50;99.90
9939;DHT22;5008;50.656;7.188;2023-07-31T12:02:34;20.70;99.90
9939;DHT22;5008;50.656;7.188;2023-07-31T12:05:02;21.00;99.90
9939;DHT22;5008;50.656;7.188;2023-07-31T12:07:46;21.20;99.90
9939;DHT22;5008;50.656;7.188;2023-07-31T12:10:26;21.30;99.90
9939;DHT22;5008;50.656;7.188;2023-07-31T12:13:00;21.50;99.90
9939;DHT22;5008;50.656;7.188;2023-07-31T12:15:38;21.60;99.90
9939;DHT22;5008;50.656;7.188;2023-07-31T12:18:06;21.70;99.90
9939;DHT22;5008;50.656;7.188;2023-07-31T12:20:33;21.80;99.90
9939;DHT22;5008;50.656;7.188;2023-07-31T12:23:02;21.90;99.90
9939;DHT22;5008;50.656;7.188;2023-07-31T12:25:32;22.10;99.90
9939;DHT22;5008;50.656;7.188;2023-07-31T12:28:04;22.10;99.90
9939;DHT22;5008;50.656;7.188;2023-07-31T12:30:33;22.10;99.90
9939;DHT22;5008;50.656;7.188;2023-07-31T12:33:03;22.10;99.90
9939;DHT22;5008;50.656;7.188;2023-07-31T12:35:35;22.10;99.90
9939;DHT22;5008;50.656;7.188;2023-07-31T12:38:04;22.00;99.90
9939;DHT22;5008;50.656;7.188;2023-07-31T12:40:31;22.00;99.90
9939;DHT22;5008;50.656;7.188;2023-07-31T12:42:58;22.00;99.90
9939;DHT22;5008;50.656;7.188;2023-07-31T12:45:24;22.20;99.90
9939;DHT22;5008;50.656;7.188;2023-07-31T12:47:52;22.20;99.90
9939;DHT22;5008;50.656;7.188;2023-07-31T12:50:19;22.20;99.90
9939;DHT22;5008;50.656;7.188;2023-07-31T12:52:46;22.30;99.90
9939;DHT22;5008;50.656;7.188;2023-07-31T12:55:14;22.40;99.90
9939;DHT22;5008;50.656;7.188;2023-07-31T12:57:41;22.40;99.90
9939;DHT22;5008;50.656;7.188;2023-07-31T13:00:08;22.40;99.90
9939;DHT22;5008;50.656;7.188;2023-07-31T13:02:35;22.20;99.90
9939;DHT22;5008;50.656;7.188;2023-07-31T13:05:02;22.00;99.90
9939;DHT22;5008;50.656;7.188;2023-07-31T13:07:29;21.90;99.90
9939;DHT22;5008;50.656;7.188;2023-07-31T13:09:56;21.90;99.90
9939;DHT22;5008;50.656;7.188;2023-07-31T13:12:24;21.80;99.90
9939;DHT22;5008;50.656;7.188;2023-07-31T13:14:51;21.80;99.90
9939;DHT22;5008;50.656;7.188;2023-07-31T13:17:18;21.80;99.90
9939;DHT22;5008;50.656;7.188;2023-07-31T13:19:44;21.70;99.90
9939;DHT22;5008;50.656;7.188;2023-07-31T13:22:11;21.70;99.90
9939;DHT22;5008;50.656;7.188;2023-07-31T13:24:38;21.70;99.90
9939;DHT22;5008;50.656;7.188;2023-07-31T13:27:05;21.60;99.90
9939;DHT22;5008;50.656;7.188;2023-07-31T13:29:33;21.60;99.90
9939;DHT22;5008;50.656;7.188;2023-07-31T13:32:00;21.60;99.90
9939;DHT22;5008;50.656;7.188;2023-07-31T13:34:27;21.70;99.90
9939;DHT22;5008;50.656;7.188;2023-07-31T13:36:54;21.70;99.90
9939;DHT22;5008;50.656;7.188;2023-07-31T13:39:21;21.70;99.90
9939;DHT22;5008;50.656;7.188;2023-07-31T13:41:48;21.80;99.90
9939;DHT22;5008;50.656;7.188;2023-07-31T13:44:15;21.90;99.90
9939;DHT22;5008;50.656;7.188;2023-07-31T13:46:43;22.10;99.90
9939;DHT22;5008;50.656;7.188;2023-07-31T13:49:10;22.20;99.90
9939;DHT22;5008;50.656;7.188;2023-07-31T13:51:36;22.10;99.90
9939;DHT22;5008;50.656;7.188;2023-07-31T13:54:04;22.10;99.90
9939;DHT22;5008;50.656;7.188;2023-07-31T13:56:32;22.00;99.90
9939;DHT22;5008;50.656;7.188;2023-07-31T13:58:59;21.90;99.90
9939;DHT22;5008;50.656;7.188;2023-07-31T14:01:26;21.90;99.90
9939;DHT22;5008;50.656;7.188;2023-07-31T14:03:54;21.90;99.90
9939;DHT22;5008;50.656;7.188;2023-07-31T14:06:21;21.90;99.90
9939;DHT22;5008;50.656;7.188;2023-07-31T14:08:48;21.70;99.90
9939;DHT22;5008;50.656;7.188;2023-07-31T14:11:15;21.80;99.90
9939;DHT22;5008;50.656;7.188;2023-07-31T14:13:42;21.80;99.90
9939;DHT22;5008;50.656;7.188;2023-07-31T14:16:09;21.70;99.90
9939;DHT22;5008;50.656;7.188;2023-07-31T14:18:36;21.70;99.90
9939;DHT22;5008;50.656;7.188;2023-07-31T14:21:04;21.80;99.90
9939;DHT22;5008;50.656;7.188;2023-07-31T14:23:31;21.70;99.90
9939;DHT22;5008;50.656;7.188;2023-07-31T14:25:58;21.60;99.90
9939;DHT22;5008;50.656;7.188;2023-07-31T14:28:25;21.40;99.90
9939;DHT22;5008;50.656;7.188;2023-07-31T14:30:51;21.30;99.90
9939;DHT22;5008;50.656;7.188;2023-07-31T14:33:18;21.30;99.90
9939;DHT22;5008;50.656;7.188;2023-07-31T14:35:45;21.10;99.90
9939;DHT22;5008;50.656;7.188;2023-07-31T14:38:13;21.00;99.90
9939;DHT22;5008;50.656;7.188;2023-07-31T14:40:41;21.00;99.90
9939;DHT22;5008;50.656;7.188;2023-07-31T14:43:08;21.00;99.90
9939;DHT22;5008;50.656;7.188;2023-07-31T14:45:34;21.00;99.90
9939;DHT22;5008;50.656;7.188;2023-07-31T14:48:01;20.80;99.90
9939;DHT22;5008;50.656;7.188;2023-07-31T14:50:28;20.90;99.90
9939;DHT22;5008;50.656;7.188;2023-07-31T14:52:55;20.90;99.90
9939;DHT22;5008;50.656;7.188;2023-07-31T14:55:23;20.80;99.90
9939;DHT22;5008;50.656;7.188;2023-07-31T14:57:50;20.80;99.90
9939;DHT22;5008;50.656;7.188;2023-07-31T15:00:17;20.80;99.90
9939;DHT22;5008;50.656;7.188;2023-07-31T15:02:44;20.80;99.90
9939;DHT22;5008;50.656;7.188;2023-07-31T15:05:11;20.80;99.90
9939;DHT22;5008;50.656;7.188;2023-07-31T15:07:37;20.80;99.90
9939;DHT22;5008;50.656;7.188;2023-07-31T15:10:05;20.80;99.90
9939;DHT22;5008;50.656;7.188;2023-07-31T15:12:34;20.80;99.90
9939;DHT22;5008;50.656;7.188;2023-07-31T15:15:03;20.80;99.90
9939;DHT22;5008;50.656;7.188;2023-07-31T15:17:30;20.80;99.90
9939;DHT22;5008;50.656;7.188;2023-07-31T15:19:57;20.70;99.90
9939;DHT22;5008;50.656;7.188;2023-07-31T15:22:24;20.60;99.90
9939;DHT22;5008;50.656;7.188;2023-07-31T15:24:52;20.70;99.90
9939;DHT22;5008;50.656;7.188;2023-07-31T15:27:19;20.70;99.90
9939;DHT22;5008;50.656;7.188;2023-07-31T15:29:48;20.60;99.90
9939;DHT22;5008;50.656;7.188;2023-07-31T15:32:16;20.60;99.90
9939;DHT22;5008;50.656;7.188;2023-07-31T15:34:43;20.70;99.90
9939;DHT22;5008;50.656;7.188;2023-07-31T15:37:10;20.70;99.90
9939;DHT22;5008;50.656;7.188;2023-07-31T15:39:37;20.70;99.90
9939;DHT22;5008;50.656;7.188;2023-07-31T15:42:04;20.80;99.90
9939;DHT22;5008;50.656;7.188;2023-07-31T15:44:31;20.80;99.90
9939;DHT22;5008;50.656;7.188;2023-07-31T15:46:59;20.80;99.90
9939;DHT22;5008;50.656;7.188;2023-07-31T15:49:26;20.90;99.90
9939;DHT22;5008;50.656;7.188;2023-07-31T15:51:54;20.80;99.90
9939;DHT22;5008;50.656;7.188;2023-07-31T15:54:20;20.80;99.90
9939;DHT22;5008;50.656;7.188;2023-07-31T15:56:47;20.90;99.90
9939;DHT22;5008;50.656;7.188;2023-07-31T15:59:14;20.80;99.90
9939;DHT22;5008;50.656;7.188;2023-07-31T16:01:41;20.80;99.90
9939;DHT22;5008;50.656;7.188;2023-07-31T16:04:09;20.70;99.90
9939;DHT22;5008;50.656;7.188;2023-07-31T16:06:36;20.70;99.90
9939;DHT22;5008;50.656;7.188;2023-07-31T16:09:02;20.70;99.90
9939;DHT22;5008;50.656;7.188;2023-07-31T16:11:29;20.50;99.90
9939;DHT22;5008;50.656;7.188;2023-07-31T16:13:56;20.50;99.90
9939;DHT22;5008;50.656;7.188;2023-07-31T16:16:24;20.50;99.90
9939;DHT22;5008;50.656;7.188;2023-07-31T16:18:52;20.40;99.90
9939;DHT22;5008;50.656;7.188;2023-07-31T16:21:21;20.40;99.90
9939;DHT22;5008;50.656;7.188;2023-07-31T16:23:48;20.20;99.90
9939;DHT22;5008;50.656;7.188;2023-07-31T16:26:15;20.20;99.90
9939;DHT22;5008;50.656;7.188;2023-07-31T16:28:42;20.00;99.90
9939;DHT22;5008;50.656;7.188;2023-07-31T16:31:09;20.00;99.90
9939;DHT22;5008;50.656;7.188;2023-07-31T16:33:36;19.90;99.90
9939;DHT22;5008;50.656;7.188;2023-07-31T16:36:03;19.70;99.90
9939;DHT22;5008;50.656;7.188;2023-07-31T16:38:32;19.80;99.90
9939;DHT22;5008;50.656;7.188;2023-07-31T16:40:59;19.70;99.90
9939;DHT22;5008;50.656;7.188;2023-07-31T16:43:26;19.60;99.90
9939;DHT22;5008;50.656;7.188;2023-07-31T16:45:54;19.50;99.90
9939;DHT22;5008;50.656;7.188;2023-07-31T16:48:24;19.50;99.90
9939;DHT22;5008;50.656;7.188;2023-07-31T16:50:51;19.60;99.90
9939;DHT22;5008;50.656;7.188;2023-07-31T16:53:18;19.60;99.90
9939;DHT22;5008;50.656;7.188;2023-07-31T16:55:50;19.50;99.90
9939;DHT22;5008;50.656;7.188;2023-07-31T16:58:17;19.40;99.90
9939;DHT22;5008;50.656;7.188;2023-07-31T17:00:45;19.30;99.90
9939;DHT22;5008;50.656;7.188;2023-07-31T17:03:12;19.30;99.90
9939;DHT22;5008;50.656;7.188;2023-07-31T17:05:39;19.40;99.90
9939;DHT22;5008;50.656;7.188;2023-07-31T17:08:06;19.30;99.90
9939;DHT22;5008;50.656;7.188;2023-07-31T17:10:32;19.30;99.90
9939;DHT22;5008;50.656;7.188;2023-07-31T17:13:01;19.20;99.90
9939;DHT22;5008;50.656;7.188;2023-07-31T17:15:27;19.20;99.90
9939;DHT22;5008;50.656;7.188;2023-07-31T17:17:54;19.20;99.90
9939;DHT22;5008;50.656;7.188;2023-07-31T17:20:23;19.30;99.90
9939;DHT22;5008;50.656;7.188;2023-07-31T17:22:50;19.30;99.90
9939;DHT22;5008;50.656;7.188;2023-07-31T17:25:18;19.30;99.90
9939;DHT22;5008;50.656;7.188;2023-07-31T17:27:47;19.40;99.90
9939;DHT22;5008;50.656;7.188;2023-07-31T17:30:16;19.40;99.90
9939;DHT22;5008;50.656;7.188;2023-07-31T17:32:44;19.30;99.90
9939;DHT22;5008;50.656;7.188;2023-07-31T17:35:11;19.40;99.90
9939;DHT22;5008;50.656;7.188;2023-07-31T17:37:38;19.50;99.90
9939;DHT22;5008;50.656;7.188;2023-07-31T17:40:06;19.40;99.90
9939;DHT22;5008;50.656;7.188;2023-07-31T17:42:33;19.40;99.90
9939;DHT22;5008;50.656;7.188;2023-07-31T17:45:00;19.40;99.90
9939;DHT22;5008;50.656;7.188;2023-07-31T17:47:29;19.60;99.90
9939;DHT22;5008;50.656;7.188;2023-07-31T17:49:58;19.50;99.90
9939;DHT22;5008;50.656;7.188;2023-07-31T17:52:25;19.50;99.90
9939;DHT22;5008;50.656;7.188;2023-07-31T17:54:52;19.60;99.90
9939;DHT22;5008;50.656;7.188;2023-07-31T17:57:19;19.50;99.90
9939;DHT22;5008;50.656;7.188;2023-07-31T17:59:46;19.50;99.90
9939;DHT22;5008;50.656;7.188;2023-07-31T18:02:13;19.50;99.90
9939;DHT22;5008;50.656;7.188;2023-07-31T18:04:41;19.50;99.90
9939;DHT22;5008;50.656;7.188;2023-07-31T18:07:08;19.50;99.90
9939;DHT22;5008;50.656;7.188;2023-07-31T18:09:35;19.50;99.90
9939;DHT22;5008;50.656;7.188;2023-07-31T18:12:04;19.50;99.90
9939;DHT22;5008;50.656;7.188;2023-07-31T18:14:31;19.40;99.90
9939;DHT22;5008;50.656;7.188;2023-07-31T18:17:00;19.40;99.90
9939;DHT22;5008;50.656;7.188;2023-07-31T18:19:27;19.40;99.90
9939;DHT22;5008;50.656;7.188;2023-07-31T18:21:55;19.40;99.90
9939;DHT22;5008;50.656;7.188;2023-07-31T18:24:22;19.50;99.90
9939;DHT22;5008;50.656;7.188;2023-07-31T18:26:49;19.50;99.90
9939;DHT22;5008;50.656;7.188;2023-07-31T18:29:15;19.50;99.90
9939;DHT22;5008;50.656;7.188;2023-07-31T18:31:54;19.40;99.90
9939;DHT22;5008;50.656;7.188;2023-07-31T18:34:21;19.30;99.90
9939;DHT22;5008;50.656;7.188;2023-07-31T18:36:48;19.20;99.90
9939;DHT22;5008;50.656;7.188;2023-07-31T18:39:16;19.20;99.90
9939;DHT22;5008;50.656;7.188;2023-07-31T18:41:43;19.20;99.90
9939;DHT22;5008;50.656;7.188;2023-07-31T18:44:10;19.00;99.90
9939;DHT22;5008;50.656;7.188;2023-07-31T18:46:51;19.00;99.90
9939;DHT22;5008;50.656;7.188;2023-07-31T18:49:17;18.90;99.90
9939;DHT22;5008;50.656;7.188;2023-07-31T18:51:44;18.90;99.90
9939;DHT22;5008;50.656;7.188;2023-07-31T18:54:13;18.80;99.90
9939;DHT22;5008;50.656;7.188;2023-07-31T18:56:42;18.70;99.90
9939;DHT22;5008;50.656;7.188;2023-07-31T18:59:19;18.70;99.90
9939;DHT22;5008;50.656;7.188;2023-07-31T19:01:49;18.70;99.90
9939;DHT22;5008;50.656;7.188;2023-07-31T19:04:16;18.70;99.90
9939;DHT22;5008;50.656;7.188;2023-07-31T19:06:43;18.60;99.90
9939;DHT22;5008;50.656;7.188;2023-07-31T19:09:10;18.60;99.90
9939;DHT22;5008;50.656;7.188;2023-07-31T19:11:41;18.60;99.90
9939;DHT22;5008;50.656;7.188;2023-07-31T19:14:13;18.70;99.90
9939;DHT22;5008;50.656;7.188;2023-07-31T19:16:46;18.70;99.90
9939;DHT22;5008;50.656;7.188;2023-07-31T19:19:13;18.60;99.90
9939;DHT22;5008;50.656;7.188;2023-07-31T19:21:40;18.50;99.90
9939;DHT22;5008;50.656;7.188;2023-07-31T19:24:07;18.60;99.90
9939;DHT22;5008;50.656;7.188;2023-07-31T19:26:34;18.60;99.90
9939;DHT22;5008;50.656;7.188;2023-07-31T19:29:04;18.60;99.90
9939;DHT22;5008;50.656;7.188;2023-07-31T19:31:31;18.60;99.90
9939;DHT22;5008;50.656;7.188;2023-07-31T19:33:58;18.60;99.90
9939;DHT22;5008;50.656;7.188;2023-07-31T19:36:25;18.60;99.90
9939;DHT22;5008;50.656;7.188;2023-07-31T19:38:53;18.60;99.90
9939;DHT22;5008;50.656;7.188;2023-07-31T19:41:20;18.50;99.90
9939;DHT22;5008;50.656;7.188;2023-07-31T19:43:47;18.50;99.90
9939;DHT22;5008;50.656;7.188;2023-07-31T19:46:15;18.40;99.90
9939;DHT22;5008;50.656;7.188;2023-07-31T19:48:42;18.40;99.90
9939;DHT22;5008;50.656;7.188;2023-07-31T19:51:09;18.40;99.90
9939;DHT22;5008;50.656;7.188;2023-07-31T19:53:36;18.30;99.90
9939;DHT22;5008;50.656;7.188;2023-07-31T19:56:04;18.30;99.90
9939;DHT22;5008;50.656;7.188;2023-07-31T19:58:31;18.30;99.90
9939;DHT22;5008;50.656;7.188;2023-07-31T20:00:58;18.20;99.90
9939;DHT22;5008;50.656;7.188;2023-07-31T20:03:27;18.30;99.90
9939;DHT22;5008;50.656;7.188;2023-07-31T20:05:54;18.30;99.90
9939;DHT22;5008;50.656;7.188;2023-07-31T20:08:24;18.20;99.90